sensor_id;sensor_type;location;lat;lon;timestamp;P1;durP1;ratioP1;P2;durP2;ratioP2
56429;SDS011;42332;52.136;20.666;2023-03-09T00:01:20;22.45;;;7.95;;
56429;SDS011;42332;52.136;20.666;2023-03-09T00:03:46;20.02;;;7.68;;
56429;SDS011;42332;52.136;20.666;2023-03-09T00:06:12;19.08;;;8.82;;
56429;SDS011;42332;52.136;20.666;2023-03-09T00:08:37;21.27;;;9.82;;
56429;SDS011;42332;52.136;20.666;2023-03-09T00:11:03;20.58;;;9.05;;
56429;SDS011;42332;52.136;20.666;2023-03-09T00:13:29;25.85;;;9.70;;
56429;SDS011;42332;52.136;20.666;2023-03-09T00:15:55;26.00;;;10.88;;
56429;SDS011;42332;52.136;20.666;2023-03-09T00:18:20;24.70;;;10.52;;
56429;SDS011;42332;52.136;20.666;2023-03-09T00:20:46;21.05;;;9.63;;
56429;SDS011;42332;52.136;20.666;2023-03-09T00:23:11;21.13;;;8.75;;
56429;SDS011;42332;52.136;20.666;2023-03-09T00:25:37;20.10;;;10.00;;
56429;SDS011;42332;52.136;20.666;2023-03-09T00:28:03;23.20;;;10.23;;
56429;SDS011;42332;52.136;20.666;2023-03-09T00:30:28;16.02;;;7.35;;
56429;SDS011;42332;52.136;20.666;2023-03-09T00:32:54;17.75;;;7.90;;
56429;SDS011;42332;52.136;20.666;2023-03-09T00:35:19;19.23;;;7.90;;
56429;SDS011;42332;52.136;20.666;2023-03-09T00:37:45;15.77;;;8.10;;
56429;SDS011;42332;52.136;20.666;2023-03-09T00:40:12;17.80;;;8.65;;
56429;SDS011;42332;52.136;20.666;2023-03-09T00:42:41;18.90;;;7.97;;
56429;SDS011;42332;52.136;20.666;2023-03-09T00:45:07;18.65;;;7.90;;
56429;SDS011;42332;52.136;20.666;2023-03-09T00:47:32;13.80;;;7.82;;
56429;SDS011;42332;52.136;20.666;2023-03-09T00:49:58;24.20;;;8.25;;
56429;SDS011;42332;52.136;20.666;2023-03-09T00:52:23;23.88;;;8.35;;
56429;SDS011;42332;52.136;20.666;2023-03-09T00:54:49;18.58;;;8.18;;
56429;SDS011;42332;52.136;20.666;2023-03-09T00:57:18;14.27;;;7.25;;
56429;SDS011;42332;52.136;20.666;2023-03-09T00:59:46;18.10;;;7.03;;
56429;SDS011;42332;52.136;20.666;2023-03-09T01:02:12;21.85;;;7.22;;
56429;SDS011;42332;52.136;20.666;2023-03-09T01:04:37;15.32;;;6.45;;
56429;SDS011;42332;52.136;20.666;2023-03-09T01:07:02;17.45;;;7.57;;
56429;SDS011;42332;52.136;20.666;2023-03-09T01:09:28;15.90;;;7.25;;
56429;SDS011;42332;52.136;20.666;2023-03-09T01:11:54;17.15;;;7.47;;
56429;SDS011;42332;52.136;20.666;2023-03-09T01:14:19;14.18;;;6.60;;
56429;SDS011;42332;52.136;20.666;2023-03-09T01:16:45;12.38;;;6.53;;
56429;SDS011;42332;52.136;20.666;2023-03-09T01:19:10;19.45;;;6.28;;
56429;SDS011;42332;52.136;20.666;2023-03-09T01:21:35;13.57;;;6.88;;
56429;SDS011;42332;52.136;20.666;2023-03-09T01:24:01;16.52;;;7.03;;
56429;SDS011;42332;52.136;20.666;2023-03-09T01:26:26;16.95;;;7.97;;
56429;SDS011;42332;52.136;20.666;2023-03-09T01:28:51;17.52;;;7.05;;
56429;SDS011;42332;52.136;20.666;2023-03-09T01:31:17;14.52;;;7.57;;
56429;SDS011;42332;52.136;20.666;2023-03-09T01:33:42;18.35;;;8.30;;
56429;SDS011;42332;52.136;20.666;2023-03-09T01:36:11;22.02;;;8.95;;
56429;SDS011;42332;52.136;20.666;2023-03-09T01:38:38;23.67;;;7.88;;
56429;SDS011;42332;52.136;20.666;2023-03-09T01:41:04;19.83;;;9.15;;
56429;SDS011;42332;52.136;20.666;2023-03-09T01:43:31;19.15;;;8.50;;
56429;SDS011;42332;52.136;20.666;2023-03-09T01:48:45;10.88;;;5.57;;
56429;SDS011;42332;52.136;20.666;2023-03-09T01:51:11;19.83;;;7.82;;
56429;SDS011;42332;52.136;20.666;2023-03-09T01:53:36;13.82;;;6.03;;
56429;SDS011;42332;52.136;20.666;2023-03-09T01:56:02;17.10;;;6.53;;
56429;SDS011;42332;52.136;20.666;2023-03-09T01:58:27;13.70;;;6.35;;
56429;SDS011;42332;52.136;20.666;2023-03-09T02:00:55;16.85;;;6.07;;
56429;SDS011;42332;52.136;20.666;2023-03-09T02:03:22;16.75;;;7.20;;
56429;SDS011;42332;52.136;20.666;2023-03-09T02:05:52;14.85;;;4.80;;
56429;SDS011;42332;52.136;20.666;2023-03-09T02:08:21;16.60;;;7.03;;
56429;SDS011;42332;52.136;20.666;2023-03-09T02:10:50;17.58;;;6.93;;
56429;SDS011;42332;52.136;20.666;2023-03-09T02:13:20;17.27;;;7.13;;
56429;SDS011;42332;52.136;20.666;2023-03-09T02:15:47;22.13;;;8.23;;
56429;SDS011;42332;52.136;20.666;2023-03-09T02:18:13;23.00;;;7.70;;
56429;SDS011;42332;52.136;20.666;2023-03-09T02:23:12;22.08;;;8.18;;
56429;SDS011;42332;52.136;20.666;2023-03-09T02:28:17;24.42;;;8.30;;
56429;SDS011;42332;52.136;20.666;2023-03-09T02:30:43;18.20;;;7.72;;
56429;SDS011;42332;52.136;20.666;2023-03-09T02:33:10;23.55;;;9.32;;
56429;SDS011;42332;52.136;20.666;2023-03-09T02:35:45;11.27;;;4.78;;
56429;SDS011;42332;52.136;20.666;2023-03-09T02:38:11;35.42;;;7.60;;
56429;SDS011;42332;52.136;20.666;2023-03-09T02:40:37;20.52;;;9.38;;
56429;SDS011;42332;52.136;20.666;2023-03-09T02:43:03;30.05;;;8.73;;
56429;SDS011;42332;52.136;20.666;2023-03-09T02:45:30;20.63;;;8.43;;
56429;SDS011;42332;52.136;20.666;2023-03-09T02:47:56;22.98;;;8.43;;
56429;SDS011;42332;52.136;20.666;2023-03-09T02:50:22;23.30;;;7.13;;
56429;SDS011;42332;52.136;20.666;2023-03-09T02:52:48;14.82;;;6.72;;
56429;SDS011;42332;52.136;20.666;2023-03-09T02:55:13;18.15;;;8.05;;
56429;SDS011;42332;52.136;20.666;2023-03-09T02:57:39;30.42;;;9.02;;
56429;SDS011;42332;52.136;20.666;2023-03-09T03:00:06;25.75;;;9.50;;
56429;SDS011;42332;52.136;20.666;2023-03-09T03:02:36;20.52;;;7.25;;
56429;SDS011;42332;52.136;20.666;2023-03-09T03:05:02;17.15;;;6.95;;
56429;SDS011;42332;52.136;20.666;2023-03-09T03:07:28;13.43;;;5.68;;
56429;SDS011;42332;52.136;20.666;2023-03-09T03:09:53;19.98;;;8.40;;
56429;SDS011;42332;52.136;20.666;2023-03-09T03:12:18;24.88;;;8.23;;
56429;SDS011;42332;52.136;20.666;2023-03-09T03:14:44;12.80;;;5.97;;
56429;SDS011;42332;52.136;20.666;2023-03-09T03:17:09;16.13;;;7.18;;
56429;SDS011;42332;52.136;20.666;2023-03-09T03:19:35;16.38;;;8.05;;
56429;SDS011;42332;52.136;20.666;2023-03-09T03:22:00;20.73;;;8.18;;
56429;SDS011;42332;52.136;20.666;2023-03-09T03:24:26;17.40;;;7.32;;
56429;SDS011;42332;52.136;20.666;2023-03-09T03:26:51;15.35;;;7.45;;
56429;SDS011;42332;52.136;20.666;2023-03-09T03:29:17;14.70;;;6.40;;
56429;SDS011;42332;52.136;20.666;2023-03-09T03:31:42;17.13;;;8.25;;
56429;SDS011;42332;52.136;20.666;2023-03-09T03:34:07;21.45;;;8.77;;
56429;SDS011;42332;52.136;20.666;2023-03-09T03:36:33;17.60;;;7.20;;
56429;SDS011;42332;52.136;20.666;2023-03-09T03:38:58;15.52;;;7.07;;
56429;SDS011;42332;52.136;20.666;2023-03-09T03:41:23;20.95;;;9.63;;
56429;SDS011;42332;52.136;20.666;2023-03-09T03:43:49;17.10;;;7.93;;
56429;SDS011;42332;52.136;20.666;2023-03-09T03:46:14;16.98;;;7.07;;
56429;SDS011;42332;52.136;20.666;2023-03-09T03:48:39;18.45;;;8.52;;
56429;SDS011;42332;52.136;20.666;2023-03-09T03:51:05;25.73;;;5.93;;
56429;SDS011;42332;52.136;20.666;2023-03-09T03:53:30;14.90;;;7.88;;
56429;SDS011;42332;52.136;20.666;2023-03-09T03:55:56;18.55;;;8.93;;
56429;SDS011;42332;52.136;20.666;2023-03-09T03:58:21;14.55;;;6.90;;
56429;SDS011;42332;52.136;20.666;2023-03-09T04:00:47;29.13;;;9.05;;
56429;SDS011;42332;52.136;20.666;2023-03-09T04:03:12;24.25;;;8.82;;
56429;SDS011;42332;52.136;20.666;2023-03-09T04:05:38;22.10;;;9.63;;
56429;SDS011;42332;52.136;20.666;2023-03-09T04:08:03;22.27;;;8.90;;
56429;SDS011;42332;52.136;20.666;2023-03-09T04:10:29;21.55;;;8.25;;
56429;SDS011;42332;52.136;20.666;2023-03-09T04:12:54;26.33;;;8.32;;
56429;SDS011;42332;52.136;20.666;2023-03-09T04:15:22;14.38;;;5.47;;
56429;SDS011;42332;52.136;20.666;2023-03-09T04:17:47;17.98;;;8.23;;
56429;SDS011;42332;52.136;20.666;2023-03-09T04:20:12;19.92;;;7.18;;
56429;SDS011;42332;52.136;20.666;2023-03-09T04:22:38;20.40;;;8.40;;
56429;SDS011;42332;52.136;20.666;2023-03-09T04:25:03;21.40;;;9.02;;
56429;SDS011;42332;52.136;20.666;2023-03-09T04:27:29;18.50;;;6.72;;
56429;SDS011;42332;52.136;20.666;2023-03-09T04:29:54;13.55;;;7.03;;
56429;SDS011;42332;52.136;20.666;2023-03-09T04:32:20;12.48;;;5.80;;
56429;SDS011;42332;52.136;20.666;2023-03-09T04:34:45;15.10;;;7.80;;
56429;SDS011;42332;52.136;20.666;2023-03-09T04:37:11;12.23;;;6.93;;
56429;SDS011;42332;52.136;20.666;2023-03-09T04:39:37;19.02;;;7.93;;
56429;SDS011;42332;52.136;20.666;2023-03-09T04:42:02;17.95;;;6.65;;
56429;SDS011;42332;52.136;20.666;2023-03-09T04:44:28;17.52;;;7.43;;
56429;SDS011;42332;52.136;20.666;2023-03-09T04:46:53;13.45;;;6.10;;
56429;SDS011;42332;52.136;20.666;2023-03-09T04:49:18;18.92;;;4.90;;
56429;SDS011;42332;52.136;20.666;2023-03-09T04:51:44;15.90;;;7.50;;
56429;SDS011;42332;52.136;20.666;2023-03-09T04:54:09;18.88;;;6.60;;
56429;SDS011;42332;52.136;20.666;2023-03-09T04:56:34;16.83;;;7.65;;
56429;SDS011;42332;52.136;20.666;2023-03-09T04:59:00;21.77;;;8.02;;
56429;SDS011;42332;52.136;20.666;2023-03-09T05:01:25;21.13;;;6.78;;
56429;SDS011;42332;52.136;20.666;2023-03-09T05:03:50;18.52;;;7.07;;
56429;SDS011;42332;52.136;20.666;2023-03-09T05:06:16;23.33;;;8.15;;
56429;SDS011;42332;52.136;20.666;2023-03-09T05:08:41;31.90;;;11.07;;
56429;SDS011;42332;52.136;20.666;2023-03-09T05:11:06;31.98;;;12.02;;
56429;SDS011;42332;52.136;20.666;2023-03-09T05:13:32;30.70;;;11.98;;
56429;SDS011;42332;52.136;20.666;2023-03-09T05:15:57;27.63;;;13.25;;
56429;SDS011;42332;52.136;20.666;2023-03-09T05:18:22;31.35;;;12.73;;
56429;SDS011;42332;52.136;20.666;2023-03-09T05:20:48;19.65;;;9.07;;
56429;SDS011;42332;52.136;20.666;2023-03-09T05:23:13;16.05;;;7.43;;
56429;SDS011;42332;52.136;20.666;2023-03-09T05:25:38;25.95;;;8.80;;
56429;SDS011;42332;52.136;20.666;2023-03-09T05:28:04;14.07;;;7.10;;
56429;SDS011;42332;52.136;20.666;2023-03-09T05:30:32;15.25;;;7.40;;
56429;SDS011;42332;52.136;20.666;2023-03-09T05:32:57;18.40;;;7.97;;
56429;SDS011;42332;52.136;20.666;2023-03-09T05:35:23;23.80;;;7.38;;
56429;SDS011;42332;52.136;20.666;2023-03-09T05:37:48;23.58;;;7.47;;
56429;SDS011;42332;52.136;20.666;2023-03-09T05:40:14;16.58;;;6.93;;
56429;SDS011;42332;52.136;20.666;2023-03-09T05:42:42;9.95;;;5.30;;
56429;SDS011;42332;52.136;20.666;2023-03-09T05:45:07;17.90;;;7.20;;
56429;SDS011;42332;52.136;20.666;2023-03-09T05:47:34;18.02;;;9.13;;
56429;SDS011;42332;52.136;20.666;2023-03-09T05:49:59;33.97;;;11.48;;
56429;SDS011;42332;52.136;20.666;2023-03-09T05:52:25;41.05;;;11.70;;
56429;SDS011;42332;52.136;20.666;2023-03-09T05:54:50;33.28;;;10.13;;
56429;SDS011;42332;52.136;20.666;2023-03-09T05:57:15;26.38;;;9.52;;
56429;SDS011;42332;52.136;20.666;2023-03-09T05:59:41;17.42;;;7.78;;
56429;SDS011;42332;52.136;20.666;2023-03-09T06:02:06;29.13;;;9.27;;
56429;SDS011;42332;52.136;20.666;2023-03-09T06:04:31;25.02;;;10.52;;
56429;SDS011;42332;52.136;20.666;2023-03-09T06:06:57;15.57;;;7.43;;
56429;SDS011;42332;52.136;20.666;2023-03-09T06:09:22;22.52;;;7.80;;
56429;SDS011;42332;52.136;20.666;2023-03-09T06:11:48;13.13;;;6.50;;
56429;SDS011;42332;52.136;20.666;2023-03-09T06:14:13;15.57;;;6.63;;
56429;SDS011;42332;52.136;20.666;2023-03-09T06:16:38;20.60;;;7.70;;
56429;SDS011;42332;52.136;20.666;2023-03-09T06:19:04;20.20;;;8.90;;
56429;SDS011;42332;52.136;20.666;2023-03-09T06:21:29;20.48;;;8.38;;
56429;SDS011;42332;52.136;20.666;2023-03-09T06:23:55;20.73;;;8.48;;
56429;SDS011;42332;52.136;20.666;2023-03-09T06:26:21;12.43;;;5.45;;
56429;SDS011;42332;52.136;20.666;2023-03-09T06:28:46;26.83;;;10.48;;
56429;SDS011;42332;52.136;20.666;2023-03-09T06:31:13;22.10;;;9.32;;
56429;SDS011;42332;52.136;20.666;2023-03-09T06:33:39;18.23;;;7.20;;
56429;SDS011;42332;52.136;20.666;2023-03-09T06:36:05;23.60;;;7.63;;
56429;SDS011;42332;52.136;20.666;2023-03-09T06:38:31;17.33;;;7.78;;
56429;SDS011;42332;52.136;20.666;2023-03-09T06:40:56;17.15;;;6.82;;
56429;SDS011;42332;52.136;20.666;2023-03-09T06:43:22;16.40;;;6.00;;
56429;SDS011;42332;52.136;20.666;2023-03-09T06:45:47;23.08;;;9.30;;
56429;SDS011;42332;52.136;20.666;2023-03-09T06:48:13;18.13;;;8.80;;
56429;SDS011;42332;52.136;20.666;2023-03-09T06:50:38;20.30;;;7.53;;
56429;SDS011;42332;52.136;20.666;2023-03-09T06:53:04;20.00;;;8.80;;
56429;SDS011;42332;52.136;20.666;2023-03-09T06:55:29;11.90;;;5.90;;
56429;SDS011;42332;52.136;20.666;2023-03-09T06:57:55;20.40;;;8.10;;
56429;SDS011;42332;52.136;20.666;2023-03-09T07:00:20;14.20;;;7.05;;
56429;SDS011;42332;52.136;20.666;2023-03-09T07:02:46;17.13;;;8.48;;
56429;SDS011;42332;52.136;20.666;2023-03-09T07:05:11;9.88;;;5.28;;
56429;SDS011;42332;52.136;20.666;2023-03-09T07:07:37;21.35;;;9.32;;
56429;SDS011;42332;52.136;20.666;2023-03-09T07:10:06;13.50;;;6.30;;
56429;SDS011;42332;52.136;20.666;2023-03-09T07:12:32;25.30;;;7.72;;
56429;SDS011;42332;52.136;20.666;2023-03-09T07:14:57;12.93;;;7.13;;
56429;SDS011;42332;52.136;20.666;2023-03-09T07:17:22;19.10;;;6.75;;
56429;SDS011;42332;52.136;20.666;2023-03-09T07:19:48;19.15;;;8.70;;
56429;SDS011;42332;52.136;20.666;2023-03-09T07:22:13;16.75;;;6.97;;
56429;SDS011;42332;52.136;20.666;2023-03-09T07:24:39;14.15;;;5.70;;
56429;SDS011;42332;52.136;20.666;2023-03-09T07:27:04;22.83;;;6.72;;
56429;SDS011;42332;52.136;20.666;2023-03-09T07:29:32;19.58;;;6.13;;
56429;SDS011;42332;52.136;20.666;2023-03-09T07:31:58;13.82;;;6.10;;
56429;SDS011;42332;52.136;20.666;2023-03-09T07:34:25;16.90;;;6.35;;
56429;SDS011;42332;52.136;20.666;2023-03-09T07:36:51;10.60;;;5.78;;
56429;SDS011;42332;52.136;20.666;2023-03-09T07:39:16;10.75;;;5.78;;
56429;SDS011;42332;52.136;20.666;2023-03-09T07:41:41;17.80;;;5.50;;
56429;SDS011;42332;52.136;20.666;2023-03-09T07:44:07;12.57;;;5.57;;
56429;SDS011;42332;52.136;20.666;2023-03-09T07:46:33;8.57;;;4.72;;
56429;SDS011;42332;52.136;20.666;2023-03-09T07:48:58;8.18;;;3.95;;
56429;SDS011;42332;52.136;20.666;2023-03-09T07:51:24;12.38;;;5.10;;
56429;SDS011;42332;52.136;20.666;2023-03-09T07:53:49;11.85;;;6.00;;
56429;SDS011;42332;52.136;20.666;2023-03-09T07:56:15;15.40;;;7.25;;
56429;SDS011;42332;52.136;20.666;2023-03-09T07:58:40;15.40;;;5.22;;
56429;SDS011;42332;52.136;20.666;2023-03-09T08:01:07;9.35;;;4.32;;
56429;SDS011;42332;52.136;20.666;2023-03-09T08:03:37;11.57;;;5.63;;
56429;SDS011;42332;52.136;20.666;2023-03-09T08:06:03;10.13;;;5.25;;
56429;SDS011;42332;52.136;20.666;2023-03-09T08:08:30;14.32;;;6.03;;
56429;SDS011;42332;52.136;20.666;2023-03-09T08:10:56;15.93;;;4.13;;
56429;SDS011;42332;52.136;20.666;2023-03-09T08:13:22;12.43;;;6.10;;
56429;SDS011;42332;52.136;20.666;2023-03-09T08:15:48;13.07;;;5.88;;
56429;SDS011;42332;52.136;20.666;2023-03-09T08:18:14;12.85;;;5.85;;
56429;SDS011;42332;52.136;20.666;2023-03-09T08:20:39;17.20;;;6.88;;
56429;SDS011;42332;52.136;20.666;2023-03-09T08:23:05;14.38;;;6.50;;
56429;SDS011;42332;52.136;20.666;2023-03-09T08:25:31;7.05;;;3.83;;
56429;SDS011;42332;52.136;20.666;2023-03-09T08:27:56;22.48;;;5.70;;
56429;SDS011;42332;52.136;20.666;2023-03-09T08:30:22;10.55;;;5.40;;
56429;SDS011;42332;52.136;20.666;2023-03-09T08:32:48;15.43;;;6.18;;
56429;SDS011;42332;52.136;20.666;2023-03-09T08:35:15;16.52;;;7.07;;
56429;SDS011;42332;52.136;20.666;2023-03-09T08:37:41;15.27;;;6.13;;
56429;SDS011;42332;52.136;20.666;2023-03-09T08:40:06;13.00;;;5.82;;
56429;SDS011;42332;52.136;20.666;2023-03-09T08:42:32;12.32;;;6.35;;
56429;SDS011;42332;52.136;20.666;2023-03-09T08:44:58;11.02;;;5.45;;
56429;SDS011;42332;52.136;20.666;2023-03-09T08:47:24;12.45;;;6.35;;
56429;SDS011;42332;52.136;20.666;2023-03-09T08:49:49;15.65;;;7.13;;
56429;SDS011;42332;52.136;20.666;2023-03-09T08:52:15;16.35;;;7.55;;
56429;SDS011;42332;52.136;20.666;2023-03-09T08:54:40;13.43;;;6.53;;
56429;SDS011;42332;52.136;20.666;2023-03-09T08:57:06;31.67;;;7.70;;
56429;SDS011;42332;52.136;20.666;2023-03-09T08:59:31;17.92;;;6.35;;
56429;SDS011;42332;52.136;20.666;2023-03-09T09:01:57;14.15;;;6.82;;
56429;SDS011;42332;52.136;20.666;2023-03-09T09:04:23;8.10;;;4.10;;
56429;SDS011;42332;52.136;20.666;2023-03-09T09:06:48;8.32;;;4.05;;
56429;SDS011;42332;52.136;20.666;2023-03-09T09:09:14;16.75;;;6.15;;
56429;SDS011;42332;52.136;20.666;2023-03-09T09:11:39;9.40;;;4.53;;
56429;SDS011;42332;52.136;20.666;2023-03-09T09:14:04;10.80;;;5.10;;
56429;SDS011;42332;52.136;20.666;2023-03-09T09:16:30;12.60;;;5.30;;
56429;SDS011;42332;52.136;20.666;2023-03-09T09:18:55;11.93;;;5.78;;
56429;SDS011;42332;52.136;20.666;2023-03-09T09:21:22;8.70;;;4.40;;
56429;SDS011;42332;52.136;20.666;2023-03-09T09:23:47;14.23;;;4.95;;
56429;SDS011;42332;52.136;20.666;2023-03-09T09:26:14;14.25;;;6.63;;
56429;SDS011;42332;52.136;20.666;2023-03-09T09:28:40;10.95;;;3.38;;
56429;SDS011;42332;52.136;20.666;2023-03-09T09:31:05;10.15;;;5.05;;
56429;SDS011;42332;52.136;20.666;2023-03-09T09:33:31;13.88;;;6.55;;
56429;SDS011;42332;52.136;20.666;2023-03-09T09:36:02;12.07;;;5.32;;
56429;SDS011;42332;52.136;20.666;2023-03-09T09:38:31;18.77;;;6.72;;
56429;SDS011;42332;52.136;20.666;2023-03-09T09:40:59;15.68;;;7.00;;
56429;SDS011;42332;52.136;20.666;2023-03-09T09:43:28;6.90;;;3.47;;
56429;SDS011;42332;52.136;20.666;2023-03-09T09:45:55;12.23;;;4.72;;
56429;SDS011;42332;52.136;20.666;2023-03-09T09:48:22;9.85;;;4.43;;
56429;SDS011;42332;52.136;20.666;2023-03-09T09:56:45;8.85;;;4.32;;
56429;SDS011;42332;52.136;20.666;2023-03-09T10:02:00;12.93;;;5.18;;
56429;SDS011;42332;52.136;20.666;2023-03-09T10:07:16;13.85;;;5.57;;
56429;SDS011;42332;52.136;20.666;2023-03-09T10:09:46;18.17;;;6.47;;
56429;SDS011;42332;52.136;20.666;2023-03-09T10:12:15;7.15;;;3.38;;
56429;SDS011;42332;52.136;20.666;2023-03-09T10:14:52;14.68;;;5.10;;
56429;SDS011;42332;52.136;20.666;2023-03-09T10:17:28;14.88;;;5.75;;
56429;SDS011;42332;52.136;20.666;2023-03-09T10:19:56;13.63;;;5.85;;
56429;SDS011;42332;52.136;20.666;2023-03-09T10:22:23;6.45;;;3.92;;
56429;SDS011;42332;52.136;20.666;2023-03-09T10:24:51;12.45;;;5.35;;
56429;SDS011;42332;52.136;20.666;2023-03-09T10:27:19;10.57;;;3.85;;
56429;SDS011;42332;52.136;20.666;2023-03-09T10:34:58;12.05;;;5.47;;
56429;SDS011;42332;52.136;20.666;2023-03-09T10:37:34;14.00;;;5.60;;
56429;SDS011;42332;52.136;20.666;2023-03-09T10:40:01;7.07;;;3.35;;
56429;SDS011;42332;52.136;20.666;2023-03-09T10:42:32;10.40;;;5.00;;
56429;SDS011;42332;52.136;20.666;2023-03-09T10:47:49;11.13;;;5.38;;
56429;SDS011;42332;52.136;20.666;2023-03-09T10:50:18;11.63;;;5.07;;
56429;SDS011;42332;52.136;20.666;2023-03-09T10:52:46;9.75;;;4.13;;
56429;SDS011;42332;52.136;20.666;2023-03-09T10:58:22;8.50;;;4.50;;
56429;SDS011;42332;52.136;20.666;2023-03-09T11:01:19;19.08;;;6.38;;
56429;SDS011;42332;52.136;20.666;2023-03-09T11:03:52;11.27;;;4.93;;
56429;SDS011;42332;52.136;20.666;2023-03-09T11:06:24;7.35;;;3.25;;
56429;SDS011;42332;52.136;20.666;2023-03-09T11:08:54;14.50;;;4.80;;
56429;SDS011;42332;52.136;20.666;2023-03-09T11:11:25;16.25;;;5.20;;
56429;SDS011;42332;52.136;20.666;2023-03-09T11:13:51;14.68;;;5.45;;
56429;SDS011;42332;52.136;20.666;2023-03-09T11:18:45;8.95;;;4.13;;
56429;SDS011;42332;52.136;20.666;2023-03-09T11:21:20;9.13;;;3.95;;
56429;SDS011;42332;52.136;20.666;2023-03-09T11:23:51;8.93;;;2.70;;
56429;SDS011;42332;52.136;20.666;2023-03-09T11:26:22;6.03;;;2.80;;
56429;SDS011;42332;52.136;20.666;2023-03-09T11:28:58;10.27;;;2.85;;
56429;SDS011;42332;52.136;20.666;2023-03-09T11:31:34;5.47;;;2.83;;
56429;SDS011;42332;52.136;20.666;2023-03-09T11:34:01;6.18;;;2.97;;
56429;SDS011;42332;52.136;20.666;2023-03-09T11:36:36;5.90;;;3.00;;
56429;SDS011;42332;52.136;20.666;2023-03-09T11:39:05;7.97;;;2.72;;
56429;SDS011;42332;52.136;20.666;2023-03-09T11:41:34;7.47;;;3.40;;
56429;SDS011;42332;52.136;20.666;2023-03-09T11:44:07;9.48;;;3.88;;
56429;SDS011;42332;52.136;20.666;2023-03-09T11:46:37;15.40;;;5.13;;
56429;SDS011;42332;52.136;20.666;2023-03-09T11:49:13;14.02;;;5.15;;
56429;SDS011;42332;52.136;20.666;2023-03-09T11:51:48;12.82;;;4.75;;
56429;SDS011;42332;52.136;20.666;2023-03-09T11:56:43;9.40;;;3.22;;
56429;SDS011;42332;52.136;20.666;2023-03-09T12:04:50;7.07;;;2.97;;
56429;SDS011;42332;52.136;20.666;2023-03-09T12:07:19;3.78;;;2.08;;
56429;SDS011;42332;52.136;20.666;2023-03-09T12:15:16;6.38;;;2.72;;
56429;SDS011;42332;52.136;20.666;2023-03-09T12:17:51;10.93;;;3.88;;
56429;SDS011;42332;52.136;20.666;2023-03-09T12:23:03;13.00;;;5.45;;
56429;SDS011;42332;52.136;20.666;2023-03-09T12:25:28;8.90;;;4.38;;
56429;SDS011;42332;52.136;20.666;2023-03-09T12:27:54;9.00;;;4.25;;
56429;SDS011;42332;52.136;20.666;2023-03-09T12:30:29;22.63;;;8.45;;
56429;SDS011;42332;52.136;20.666;2023-03-09T12:33:00;16.27;;;4.63;;
56429;SDS011;42332;52.136;20.666;2023-03-09T12:42:52;15.88;;;4.28;;
56429;SDS011;42332;52.136;20.666;2023-03-09T12:53:20;13.45;;;6.55;;
56429;SDS011;42332;52.136;20.666;2023-03-09T12:55:50;15.73;;;6.82;;
56429;SDS011;42332;52.136;20.666;2023-03-09T13:00:51;10.95;;;4.35;;
56429;SDS011;42332;52.136;20.666;2023-03-09T13:03:18;10.27;;;5.53;;
56429;SDS011;42332;52.136;20.666;2023-03-09T13:05:49;10.50;;;4.88;;
56429;SDS011;42332;52.136;20.666;2023-03-09T13:08:33;8.88;;;3.95;;
56429;SDS011;42332;52.136;20.666;2023-03-09T13:13:50;7.53;;;3.63;;
56429;SDS011;42332;52.136;20.666;2023-03-09T13:24:22;17.30;;;7.47;;
56429;SDS011;42332;52.136;20.666;2023-03-09T13:26:49;13.50;;;6.07;;
56429;SDS011;42332;52.136;20.666;2023-03-09T13:29:21;11.73;;;4.82;;
56429;SDS011;42332;52.136;20.666;2023-03-09T13:31:51;28.63;;;8.18;;
56429;SDS011;42332;52.136;20.666;2023-03-09T13:34:24;21.80;;;8.10;;
56429;SDS011;42332;52.136;20.666;2023-03-09T13:36:53;21.98;;;8.02;;
56429;SDS011;42332;52.136;20.666;2023-03-09T13:39:23;16.85;;;8.13;;
56429;SDS011;42332;52.136;20.666;2023-03-09T13:41:49;20.63;;;8.75;;
56429;SDS011;42332;52.136;20.666;2023-03-09T13:44:17;17.42;;;8.10;;
56429;SDS011;42332;52.136;20.666;2023-03-09T13:46:47;22.05;;;8.50;;
56429;SDS011;42332;52.136;20.666;2023-03-09T13:49:18;13.18;;;6.15;;
56429;SDS011;42332;52.136;20.666;2023-03-09T13:51:46;30.60;;;9.50;;
56429;SDS011;42332;52.136;20.666;2023-03-09T13:59:32;18.15;;;6.97;;
56429;SDS011;42332;52.136;20.666;2023-03-09T14:02:08;13.20;;;6.47;;
56429;SDS011;42332;52.136;20.666;2023-03-09T14:04:43;6.15;;;2.60;;
56429;SDS011;42332;52.136;20.666;2023-03-09T14:07:17;11.27;;;5.30;;
56429;SDS011;42332;52.136;20.666;2023-03-09T14:09:52;18.50;;;7.07;;
56429;SDS011;42332;52.136;20.666;2023-03-09T14:14:59;15.43;;;5.47;;
56429;SDS011;42332;52.136;20.666;2023-03-09T14:17:26;8.95;;;4.15;;
56429;SDS011;42332;52.136;20.666;2023-03-09T14:19:52;12.23;;;5.15;;
56429;SDS011;42332;52.136;20.666;2023-03-09T14:22:19;8.82;;;4.25;;
56429;SDS011;42332;52.136;20.666;2023-03-09T14:24:46;9.13;;;3.72;;
56429;SDS011;42332;52.136;20.666;2023-03-09T14:30:31;9.43;;;4.22;;
56429;SDS011;42332;52.136;20.666;2023-03-09T14:35:29;11.75;;;5.63;;
56429;SDS011;42332;52.136;20.666;2023-03-09T14:37:57;13.40;;;6.15;;
56429;SDS011;42332;52.136;20.666;2023-03-09T14:40:30;24.83;;;7.22;;
56429;SDS011;42332;52.136;20.666;2023-03-09T14:45:45;72.00;;;21.63;;
56429;SDS011;42332;52.136;20.666;2023-03-09T14:48:11;41.78;;;15.38;;
56429;SDS011;42332;52.136;20.666;2023-03-09T14:50:36;17.92;;;5.38;;
56429;SDS011;42332;52.136;20.666;2023-03-09T14:53:02;11.93;;;5.57;;
56429;SDS011;42332;52.136;20.666;2023-03-09T14:55:27;20.42;;;8.68;;
56429;SDS011;42332;52.136;20.666;2023-03-09T14:57:53;13.23;;;4.30;;
56429;SDS011;42332;52.136;20.666;2023-03-09T15:00:19;22.58;;;6.45;;
56429;SDS011;42332;52.136;20.666;2023-03-09T15:02:47;5.93;;;2.97;;
56429;SDS011;42332;52.136;20.666;2023-03-09T15:05:14;23.08;;;6.30;;
56429;SDS011;42332;52.136;20.666;2023-03-09T15:07:41;23.50;;;8.57;;
56429;SDS011;42332;52.136;20.666;2023-03-09T15:10:07;14.75;;;5.45;;
56429;SDS011;42332;52.136;20.666;2023-03-09T15:12:32;15.15;;;4.70;;
56429;SDS011;42332;52.136;20.666;2023-03-09T15:14:58;9.60;;;4.47;;
56429;SDS011;42332;52.136;20.666;2023-03-09T15:17:23;12.95;;;5.20;;
56429;SDS011;42332;52.136;20.666;2023-03-09T15:19:49;15.18;;;6.63;;
56429;SDS011;42332;52.136;20.666;2023-03-09T15:22:15;15.68;;;6.68;;
56429;SDS011;42332;52.136;20.666;2023-03-09T15:24:41;6.90;;;3.22;;
56429;SDS011;42332;52.136;20.666;2023-03-09T15:27:07;9.60;;;4.93;;
56429;SDS011;42332;52.136;20.666;2023-03-09T15:29:33;7.75;;;4.38;;
56429;SDS011;42332;52.136;20.666;2023-03-09T15:31:58;10.38;;;5.15;;
56429;SDS011;42332;52.136;20.666;2023-03-09T15:34:29;9.82;;;4.25;;
56429;SDS011;42332;52.136;20.666;2023-03-09T15:36:55;8.35;;;3.25;;
56429;SDS011;42332;52.136;20.666;2023-03-09T15:39:20;19.13;;;7.78;;
56429;SDS011;42332;52.136;20.666;2023-03-09T15:41:45;15.20;;;5.75;;
56429;SDS011;42332;52.136;20.666;2023-03-09T15:44:10;15.52;;;6.95;;
56429;SDS011;42332;52.136;20.666;2023-03-09T15:46:36;18.13;;;7.45;;
56429;SDS011;42332;52.136;20.666;2023-03-09T15:49:06;19.85;;;8.13;;
56429;SDS011;42332;52.136;20.666;2023-03-09T15:51:32;17.23;;;7.65;;
56429;SDS011;42332;52.136;20.666;2023-03-09T15:53:57;16.77;;;7.60;;
56429;SDS011;42332;52.136;20.666;2023-03-09T15:56:23;33.65;;;11.07;;